Hundvaag 1 weather for Jun 1995
Month no. 96
Obs.
Da.
Temp. Dew Point Precip. Wind
Speed
Wind gusts Cloud cover Press. Humidity Wind dir. Sunny OPT
01.06.1995 8,4   0,0     0          
02.06.1995 9,4   9,9     0       1  
03.06.1995 12,7   0,0     1       1  
04.06.1995 14,0   0,0     9       1  
05.06.1995 14,8   0,0     3       1  
06.06.1995 9,9   0,0     0       1  
07.06.1995 10,1   6,1     1          
08.06.1995 11,3   4,8     0          
09.06.1995 11,2   0,7     5       1  
10.06.1995 13,8   0,0     3       1  
11.06.1995 11,9   0,1     3       1  
12.06.1995 15,4   0,0     8       1  
13.06.1995 12,6   0,0     2       1  
14.06.1995 13,1   0,0     1          
15.06.1995 12,9   2,2     0          
16.06.1995 13,4   0,0     2       1  
17.06.1995 15,0   1,1     0          
18.06.1995 10,1   22,5     0       1  
19.06.1995 10,6   7,9     8       1  
20.06.1995 13,9   0,7     0          
21.06.1995 10,6   3,3     2       1  
22.06.1995 10,0   1,5     2       1  
23.06.1995 14,4   0,0     10       1  
24.06.1995 15,0   0,0     10       1  
25.06.1995 16,0   0,0     10       1  
26.06.1995 14,4   0,0     10       1  
27.06.1995 14,7   0,0     10       1  
28.06.1995 13,9   0,0     10       1  
29.06.1995 12,9   0,0     8       1  
30.06.1995 10,6   0,0     0       1  
                       
Avrg/Sum 12,6   60,8     3,9       23